Time;durP1;ratioP1;P1;durP2;ratioP2;P2;SDS_P1;SDS_P2;PMS_P1;PMS_P2;Temp;Humidity;BMP_temperature;BMP_pressure;BME280_temperature;BME280_humidity;BME280_pressure;Samples;Min_cycle;Max_cycle;Signal;HPM_P1;HPM_P2
2022/11/13 00:02:08;;;;;;;9.13;7.10;;;;;;;8.59;100.00;101450.47;5031623;28;20801;-62
2022/11/13 00:04:34;;;;;;;10.10;4.63;;;;;;;8.67;100.00;101444.28;5031697;28;20500;-62
2022/11/13 00:07:01;;;;;;;7.60;4.53;;;;;;;9.05;100.00;101438.88;5017175;28;20452;-62
2022/11/13 00:09:27;;;;;;;6.73;6.23;;;;;;;8.49;100.00;101446.06;5020398;28;20490;-62
2022/11/13 00:11:53;;;;;;;8.67;5.73;;;;;;;9.00;100.00;101445.94;5016896;28;20452;-62
2022/11/13 00:14:20;;;;;;;8.17;5.20;;;;;;;8.46;100.00;101447.84;5020281;28;20471;-62
2022/11/13 00:16:46;;;;;;;3.80;3.40;;;;;;;8.32;100.00;101437.22;5018211;28;20496;-63
2022/11/13 00:19:13;;;;;;;6.10;5.10;;;;;;;8.61;100.00;101440.72;5023065;28;20953;-62
2022/11/13 00:21:39;;;;;;;6.10;4.10;;;;;;;8.67;100.00;101441.63;5013780;28;20519;-62
2022/11/13 00:24:06;;;;;;;6.80;4.10;;;;;;;8.70;100.00;101437.19;5022775;28;20492;-62
2022/11/13 00:26:32;;;;;;;5.73;5.23;;;;;;;8.42;100.00;101436.38;5015186;28;20875;-62
2022/11/13 00:29:00;;;;;;;4.90;4.57;;;;;;;8.70;100.00;101442.50;5031504;28;20448;-62
2022/11/13 00:31:28;;;;;;;3.57;3.37;;;;;;;8.81;100.00;101442.47;5031191;28;20456;-62
2022/11/13 00:33:54;;;;;;;7.57;5.10;;;;;;;8.60;100.00;101432.78;5031381;28;20471;-62
2022/11/13 00:36:41;;;;;;;4.90;4.40;;;;;;;8.57;100.00;101424.84;5025017;28;20908;-62
2022/11/13 00:39:08;;;;;;;3.70;3.07;;;;;;;8.56;100.00;101428.38;5031368;28;20521;-62
2022/11/13 00:41:35;;;;;;;6.20;4.50;;;;;;;8.53;100.00;101431.06;5024877;28;20455;-62
2022/11/13 00:44:02;;;;;;;8.87;4.33;;;;;;;8.90;100.00;101413.25;5025315;28;20476;-62
2022/11/13 00:46:29;;;;;;;10.53;4.87;;;;;;;8.71;100.00;101411.56;5019154;28;20830;-63
2022/11/13 00:48:56;;;;;;;11.10;5.27;;;;;;;8.84;100.00;101414.19;5024156;28;20459;-62
2022/11/13 00:51:22;;;;;;;4.10;3.90;;;;;;;8.26;100.00;101408.09;5011578;28;20880;-61
2022/11/13 00:53:49;;;;;;;4.90;3.87;;;;;;;7.98;100.00;101396.66;5014812;28;20566;-62
2022/11/13 00:56:15;;;;;;;6.07;5.67;;;;;;;8.11;100.00;101403.69;5020208;28;20510;-62
2022/11/13 00:58:42;;;;;;;6.47;4.97;;;;;;;8.11;100.00;101402.81;5029521;28;21000;-62
2022/11/13 01:01:12;;;;;;;4.87;4.57;;;;;;;8.31;100.00;101398.38;5011248;28;20527;-62
2022/11/13 01:03:39;;;;;;;3.57;2.87;;;;;;;8.54;100.00;101403.66;5024156;28;20494;-63
2022/11/13 01:06:11;;;;;;;8.03;4.47;;;;;;;8.44;100.00;101402.78;5017730;28;20506;-62
2022/11/13 01:08:37;;;;;;;3.93;3.57;;;;;;;8.61;100.00;101402.75;5029682;28;20951;-62
2022/11/13 01:11:13;;;;;;;9.40;2.83;;;;;;;8.10;100.00;101407.22;5030515;28;20514;-62
2022/11/13 01:13:42;;;;;;;5.03;4.60;;;;;;;8.16;100.00;101409.88;5014624;28;20464;-62
2022/11/13 01:16:10;;;;;;;8.40;3.73;;;;;;;8.25;100.00;101401.91;5019140;28;20459;-62
2022/11/13 01:18:37;;;;;;;6.97;4.67;;;;;;;8.34;100.00;101395.75;5026919;28;20516;-62
2022/11/13 01:21:16;;;;;;;8.80;4.57;;;;;;;8.75;100.00;101405.38;5020798;28;20513;-62
2022/11/13 01:23:43;;;;;;;6.03;3.43;;;;;;;8.28;100.00;101395.72;5021528;28;20480;-62
2022/11/13 01:26:23;;;;;;;4.70;4.30;;;;;;;7.98;100.00;101408.13;5018585;28;20459;-61
2022/11/13 01:28:50;;;;;;;8.00;4.83;;;;;;;8.00;100.00;101403.69;5018891;28;20443;-62
2022/11/13 01:31:20;;;;;;;3.83;3.53;;;;;;;8.10;100.00;101396.66;5016007;28;20961;-62
2022/11/13 01:33:47;;;;;;;3.60;3.30;;;;;;;7.82;100.00;101393.13;5001133;28;20892;-61
2022/11/13 01:36:25;;;;;;;8.13;4.67;;;;;;;7.76;100.00;101393.09;5023806;28;20460;-61
2022/11/13 01:38:52;;;;;;;12.77;2.77;;;;;;;7.49;100.00;101393.06;5029869;28;20491;-62
2022/11/13 01:41:33;;;;;;;6.83;4.60;;;;;;;7.61;100.00;101391.31;5033961;28;20455;-62
2022/11/13 01:44:00;;;;;;;10.33;4.13;;;;;;;7.54;100.00;101393.94;5024974;28;20471;-59
2022/11/13 01:46:32;;;;;;;4.40;4.00;;;;;;;7.58;100.00;101395.72;5017524;28;20950;-59
2022/11/13 01:49:14;;;;;;;20.53;4.67;;;;;;;7.63;100.00;101388.66;5023780;28;20456;-59
2022/11/13 01:51:48;;;;;;;3.20;2.33;;;;;;;7.49;100.00;101377.19;4992754;28;21013;-59
2022/11/13 01:54:52;;;;;;;13.30;3.70;;;;;;;7.36;100.00;101385.09;5013037;28;21147;-59
2022/11/13 01:57:19;;;;;;;4.30;3.20;;;;;;;7.53;100.00;101381.59;4987393;28;20507;-61
2022/11/13 01:59:50;;;;;;;6.30;5.70;;;;;;;7.62;100.00;101369.28;5018659;28;20447;-59
2022/11/13 02:02:16;;;;;;;7.33;6.10;;;;;;;7.73;100.00;101364.88;5013515;28;20531;-60
2022/11/13 02:04:43;;;;;;;5.60;5.10;;;;;;;7.87;100.00;101371.94;5019441;28;21014;-60
2022/11/13 02:07:13;;;;;;;10.47;5.27;;;;;;;8.09;100.00;101359.56;5027913;28;20456;-59
2022/11/13 02:09:42;;;;;;;10.73;5.43;;;;;;;7.87;100.00;101359.56;5029596;28;20455;-60
2022/11/13 02:12:14;;;;;;;3.83;3.53;;;;;;;7.82;100.00;101358.72;5012492;28;20453;-60
2022/11/13 02:14:44;;;;;;;3.00;2.80;;;;;;;7.67;100.00;101363.97;5003347;28;20486;-60
2022/11/13 02:17:18;;;;;;;3.33;3.13;;;;;;;7.53;100.00;101363.97;5016663;28;20458;-60
2022/11/13 02:19:50;;;;;;;3.17;2.97;;;;;;;7.86;100.00;101360.47;5029797;28;20578;-60
2022/11/13 02:22:27;;;;;;;7.20;5.10;;;;;;;7.98;100.00;101359.56;5018602;28;20487;-59
2022/11/13 02:24:57;;;;;;;5.37;2.97;;;;;;;7.75;100.00;101359.56;5014688;28;20452;-60
2022/11/13 02:27:35;;;;;;;3.80;3.60;;;;;;;8.28;100.00;101354.22;5022403;28;20453;-60
2022/11/13 02:30:15;;;;;;;4.33;3.40;;;;;;;8.17;100.00;101363.06;5026512;28;20533;-60
2022/11/13 02:32:46;;;;;;;3.80;3.50;;;;;;;8.52;100.00;101363.94;5029755;28;20499;-60
2022/11/13 02:35:15;;;;;;;3.70;3.50;;;;;;;8.47;100.00;101363.03;5013951;28;20466;-60
2022/11/13 02:37:42;;;;;;;7.10;2.60;;;;;;;8.03;100.00;101357.78;5022915;28;20495;-60
2022/11/13 02:40:09;;;;;;;11.47;4.23;;;;;;;8.05;100.00;101357.78;5029239;28;20506;-60
2022/11/13 02:42:35;;;;;;;2.70;2.50;;;;;;;8.26;100.00;101355.13;5041345;28;20471;-60
2022/11/13 02:45:02;;;;;;;2.60;2.40;;;;;;;8.34;100.00;101356.00;5009511;28;20503;-60
2022/11/13 02:47:29;;;;;;;9.33;6.97;;;;;;;8.36;100.00;101342.75;5019798;28;20901;-60
2022/11/13 02:49:55;;;;;;;3.93;3.57;;;;;;;8.38;100.00;101352.50;5009132;28;20452;-60
2022/11/13 02:52:21;;;;;;;5.50;4.60;;;;;;;7.82;100.00;101356.06;5022447;28;20534;-60
2022/11/13 02:54:48;;;;;;;2.73;2.17;;;;;;;8.12;100.00;101349.84;5009322;28;20453;-60
2022/11/13 02:57:14;;;;;;;4.87;2.80;;;;;;;8.31;100.00;101342.75;5009146;28;20509;-60
2022/11/13 02:59:41;;;;;;;4.73;3.50;;;;;;;8.24;100.00;101344.53;5028936;28;20452;-60
2022/11/13 03:02:07;;;;;;;4.20;4.00;;;;;;;8.33;100.00;101338.31;5028699;28;20452;-60
2022/11/13 03:04:34;;;;;;;6.00;2.63;;;;;;;8.06;100.00;101336.59;5029092;28;20558;-61
2022/11/13 03:07:20;;;;;;;5.03;3.57;;;;;;;8.16;100.00;101338.34;5027449;28;20483;-60
2022/11/13 03:09:46;;;;;;;4.40;2.47;;;;;;;8.12;100.00;101331.31;5028934;28;20961;-60
2022/11/13 03:12:13;;;;;;;5.03;3.80;;;;;;;8.09;100.00;101333.09;5028576;28;20530;-60
2022/11/13 03:14:39;;;;;;;4.83;3.27;;;;;;;8.05;100.00;101328.66;5028622;28;20461;-60
2022/11/13 03:17:06;;;;;;;3.93;3.07;;;;;;;7.88;100.00;101334.00;5012942;28;21200;-60
2022/11/13 03:19:32;;;;;;;4.73;4.23;;;;;;;7.82;100.00;101326.94;5011335;28;20488;-60
2022/11/13 03:21:59;;;;;;;3.57;3.20;;;;;;;7.87;100.00;101324.28;5024363;28;20452;-60
2022/11/13 03:24:25;;;;;;;3.73;3.37;;;;;;;7.68;100.00;101326.94;5017471;28;20782;-60
2022/11/13 03:26:52;;;;;;;4.53;3.80;;;;;;;7.96;100.00;101322.53;5024317;28;20463;-60
2022/11/13 03:29:18;;;;;;;6.00;3.27;;;;;;;7.76;100.00;101315.47;5028450;28;20452;-60
2022/11/13 03:31:45;;;;;;;2.53;2.37;;;;;;;7.89;100.00;101318.09;5013653;28;20456;-60
2022/11/13 03:34:11;;;;;;;2.97;2.77;;;;;;;7.83;100.00;101318.13;5031861;28;20483;-60
2022/11/13 03:36:37;;;;;;;4.80;3.63;;;;;;;7.71;100.00;101321.66;5032564;28;20514;-60
2022/11/13 03:39:04;;;;;;;3.20;3.00;;;;;;;7.31;100.00;101322.50;5032269;28;20495;-59
2022/11/13 03:41:30;;;;;;;2.43;2.23;;;;;;;6.83;100.00;101324.13;5037665;28;20450;-60
2022/11/13 03:43:57;;;;;;;4.20;3.03;;;;;;;6.74;100.00;101319.72;5032378;28;20479;-60
2022/11/13 03:46:23;;;;;;;3.37;1.97;;;;;;;6.76;100.00;101317.97;5019338;28;20517;-59
2022/11/13 03:48:50;;;;;;;3.20;2.43;;;;;;;6.97;100.00;101317.13;5019495;28;20452;-60
2022/11/13 03:51:16;;;;;;;2.43;2.27;;;;;;;6.84;100.00;101315.34;5018405;28;20455;-60
2022/11/13 03:53:42;;;;;;;2.40;2.20;;;;;;;6.96;100.00;101314.50;5016582;28;20503;-60
2022/11/13 03:56:09;;;;;;;3.23;3.03;;;;;;;6.79;100.00;101306.53;5000773;28;20448;-60
2022/11/13 03:58:35;;;;;;;2.20;2.10;;;;;;;6.87;100.00;101307.44;5019298;28;20518;-60
2022/11/13 04:01:05;;;;;;;6.13;2.47;;;;;;;6.81;100.00;101310.94;5012457;28;20461;-60
2022/11/13 04:03:32;;;;;;;4.70;2.57;;;;;;;6.82;100.00;101317.97;5028504;28;20532;-60
2022/11/13 04:05:58;;;;;;;2.27;2.17;;;;;;;6.84;100.00;101313.56;5025170;28;20527;-60
2022/11/13 04:08:24;;;;;;;3.70;2.23;;;;;;;6.89;100.00;101312.72;5028535;28;20456;-60
2022/11/13 04:10:51;;;;;;;2.30;1.70;;;;;;;6.69;100.00;101302.94;5012168;28;20460;-60
2022/11/13 04:13:18;;;;;;;2.07;1.87;;;;;;;6.73;100.00;101306.50;5025193;28;20477;-60
2022/11/13 04:15:44;;;;;;;1.97;1.87;;;;;;;6.79;100.00;101299.47;5031421;28;20961;-60
2022/11/13 04:18:11;;;;;;;2.83;1.27;;;;;;;6.84;100.00;101302.13;5029996;28;20921;-60
2022/11/13 04:20:37;;;;;;;3.00;1.80;;;;;;;6.81;100.00;101295.06;5011886;28;21083;-60
2022/11/13 04:23:07;;;;;;;1.03;1.03;;;;;;;7.06;100.00;101295.13;5025481;28;20487;-60
2022/11/13 04:25:34;;;;;;;4.07;3.67;;;;;;;7.03;100.00;101297.78;5011720;28;20448;-59
2022/11/13 04:28:00;;;;;;;2.77;2.13;;;;;;;6.89;100.00;101292.47;5025083;28;20463;-60
2022/11/13 04:30:27;;;;;;;2.10;1.63;;;;;;;6.78;100.00;101291.53;5011881;28;20507;-60
2022/11/13 04:32:53;;;;;;;1.70;1.60;;;;;;;6.81;100.00;101278.34;5014063;28;20510;-60
2022/11/13 04:35:19;;;;;;;1.17;1.03;;;;;;;6.43;100.00;101283.47;5031396;28;20497;-59
2022/11/13 04:37:46;;;;;;;1.80;1.63;;;;;;;6.36;100.00;101274.66;5031101;28;20506;-60
2022/11/13 04:40:12;;;;;;;1.37;1.20;;;;;;;6.94;100.00;101281.91;5029482;28;20948;-60
2022/11/13 04:42:47;;;;;;;2.20;1.10;;;;;;;6.97;100.00;101272.19;5042950;28;20493;-59
2022/11/13 04:45:18;;;;;;;0.70;0.70;;;;;;;6.54;100.00;101272.09;5003281;28;20452;-59
2022/11/13 04:47:45;;;;;;;2.50;2.33;;;;;;;6.46;100.00;101273.84;5021758;28;20949;-60
2022/11/13 04:50:13;;;;;;;6.20;2.60;;;;;;;6.80;100.00;101276.56;5021149;28;20459;-60
2022/11/13 04:52:40;;;;;;;3.03;1.90;;;;;;;6.78;100.00;101271.28;5027115;28;20531;-60
2022/11/13 04:55:08;;;;;;;2.93;2.73;;;;;;;6.43;100.00;101263.22;5011473;28;20884;-60
2022/11/13 04:57:34;;;;;;;1.20;1.20;;;;;;;6.55;100.00;101267.69;5028335;28;20463;-60
2022/11/13 05:00:02;;;;;;;1.93;1.70;;;;;;;6.47;100.00;101265.03;5030556;28;20492;-60
2022/11/13 05:02:28;;;;;;;2.33;2.13;;;;;;;6.76;100.00;101262.47;5030683;28;20529;-60
2022/11/13 05:04:55;;;;;;;1.77;1.67;;;;;;;6.66;100.00;101260.69;5030744;28;20463;-60
2022/11/13 05:07:28;;;;;;;2.80;2.20;;;;;;;6.64;100.00;101257.16;5012459;28;20449;-60
2022/11/13 05:09:55;;;;;;;1.83;1.47;;;;;;;6.57;100.00;101251.84;5022672;28;20459;-60
2022/11/13 05:12:21;;;;;;;2.30;2.20;;;;;;;6.70;100.00;101248.34;5028836;28;20475;-60
2022/11/13 05:14:47;;;;;;;2.13;1.93;;;;;;;6.53;100.00;101246.56;5030552;28;20464;-60
2022/11/13 05:17:14;;;;;;;3.30;3.10;;;;;;;6.39;100.00;101242.09;5011953;28;20460;-60
2022/11/13 05:19:40;;;;;;;2.17;2.07;;;;;;;6.36;100.00;101234.19;5012625;28;20543;-60
2022/11/13 05:22:06;;;;;;;2.77;2.57;;;;;;;6.33;100.00;101228.88;5015678;28;20460;-61
2022/11/13 05:24:33;;;;;;;3.13;2.83;;;;;;;6.30;100.00;101239.41;5001001;28;20534;-60
2022/11/13 05:26:59;;;;;;;3.53;2.70;;;;;;;6.43;100.00;101243.88;5014131;28;20456;-60
2022/11/13 05:29:26;;;;;;;3.10;2.50;;;;;;;6.30;100.00;101239.41;5022410;28;20578;-59
2022/11/13 05:31:52;;;;;;;3.40;2.73;;;;;;;6.30;100.00;101244.69;5025043;28;20464;-60
2022/11/13 05:34:19;;;;;;;2.70;2.60;;;;;;;6.23;100.00;101244.69;5010288;28;20635;-60
2022/11/13 05:36:45;;;;;;;7.40;2.50;;;;;;;6.19;100.00;101240.28;5023790;28;20735;-59
2022/11/13 05:39:11;;;;;;;1.50;1.40;;;;;;;6.14;100.00;101243.75;5010652;28;20491;-60
2022/11/13 05:41:38;;;;;;;1.33;1.23;;;;;;;6.23;100.00;101234.13;5035549;28;20458;-60
2022/11/13 05:44:04;;;;;;;1.00;0.73;;;;;;;6.03;100.00;101230.53;5005951;28;20485;-60
2022/11/13 05:46:30;;;;;;;2.03;1.80;;;;;;;6.33;100.00;101226.25;5015912;28;20456;-60
2022/11/13 05:48:59;;;;;;;1.80;1.77;;;;;;;6.46;100.00;101228.94;5016391;28;20510;-60
2022/11/13 05:51:28;;;;;;;4.00;2.17;;;;;;;6.16;100.00;101224.41;5017359;28;20458;-59
2022/11/13 05:53:55;;;;;;;1.07;1.07;;;;;;;6.36;100.00;101213.94;5019035;28;20979;-60
2022/11/13 05:56:27;;;;;;;1.53;1.43;;;;;;;6.43;100.00;101207.78;5019028;28;20948;-60
2022/11/13 05:58:54;;;;;;;1.53;1.43;;;;;;;6.07;100.00;101212.94;5015294;28;20539;-59
2022/11/13 06:01:31;;;;;;;3.10;2.20;;;;;;;6.03;100.00;101212.06;5017962;28;20530;-60
2022/11/13 06:03:58;;;;;;;1.77;1.67;;;;;;;5.95;100.00;101205.84;5013750;28;20468;-60
2022/11/13 06:06:26;;;;;;;2.33;2.07;;;;;;;5.97;100.00;101201.44;5024280;28;20456;-60
2022/11/13 06:08:55;;;;;;;1.57;1.47;;;;;;;5.98;100.00;101200.56;5029406;28;20447;-60
2022/11/13 06:11:24;;;;;;;1.10;1.10;;;;;;;6.02;100.00;101194.41;5029546;28;20456;-59
2022/11/13 06:13:52;;;;;;;1.93;1.53;;;;;;;5.89;100.00;101196.13;5025879;28;20993;-59
2022/11/13 06:16:26;;;;;;;1.00;0.90;;;;;;;5.96;100.00;101201.44;5010207;28;20464;-59
2022/11/13 06:18:56;;;;;;;0.80;0.80;;;;;;;5.71;100.00;101200.38;5023027;28;20488;-59
2022/11/13 06:21:25;;;;;;;0.73;0.70;;;;;;;5.97;100.00;101200.56;5009782;28;20452;-59
2022/11/13 06:23:51;;;;;;;1.10;1.00;;;;;;;5.87;100.00;101204.88;5022436;28;21345;-60
2022/11/13 06:26:22;;;;;;;1.80;1.30;;;;;;;5.84;100.00;101199.59;5009454;28;20460;-60
2022/11/13 06:28:49;;;;;;;4.37;1.50;;;;;;;5.74;100.00;101197.75;5020546;28;20448;-59
2022/11/13 06:31:35;;;;;;;1.20;1.10;;;;;;;5.65;100.00;101201.25;5010315;28;20465;-59
2022/11/13 06:34:03;;;;;;;1.43;1.33;;;;;;;5.47;100.00;101191.44;5019773;28;20472;-60
2022/11/13 06:36:32;;;;;;;0.53;0.53;;;;;;;5.67;100.00;101195.97;4993434;28;20514;-59
2022/11/13 06:38:59;;;;;;;1.57;1.23;;;;;;;5.62;100.00;101198.59;5026454;28;20495;-59
2022/11/13 06:41:28;;;;;;;1.13;1.13;;;;;;;5.67;100.00;101193.34;5034043;28;20454;-59
2022/11/13 06:43:56;;;;;;;1.50;1.40;;;;;;;6.16;100.00;101184.81;5025183;28;20469;-59
2022/11/13 06:46:29;;;;;;;1.40;1.10;;;;;;;5.73;100.00;101188.09;5022369;28;20995;-59
2022/11/13 06:48:55;;;;;;;2.23;1.90;;;;;;;5.87;100.00;101189.03;5022468;28;20455;-60
2022/11/13 06:51:24;;;;;;;5.40;2.23;;;;;;;6.11;100.00;101185.66;5022569;28;20463;-59
2022/11/13 06:53:51;;;;;;;1.67;0.73;;;;;;;6.09;100.00;101182.16;5013844;28;21000;-59
2022/11/13 06:56:18;;;;;;;0.70;0.60;;;;;;;5.71;100.00;101174.00;5028212;28;20455;-60
2022/11/13 06:58:44;;;;;;;1.23;1.20;;;;;;;5.47;100.00;101183.53;5015699;28;20537;-60
2022/11/13 07:01:18;;;;;;;3.43;2.83;;;;;;;5.35;100.00;101184.34;5009211;28;20523;-60
2022/11/13 07:03:45;;;;;;;1.77;1.67;;;;;;;5.35;100.00;101178.19;5014600;28;20469;-60
2022/11/13 07:06:15;;;;;;;1.00;0.97;;;;;;;5.49;100.00;101176.53;5022864;28;20460;-60
2022/11/13 07:08:42;;;;;;;4.10;1.53;;;;;;;5.57;100.00;101184.47;5016067;28;20805;-60
2022/11/13 07:11:11;;;;;;;1.30;1.20;;;;;;;5.47;100.00;101186.16;5028576;28;21007;-60
2022/11/13 07:13:38;;;;;;;1.00;1.00;;;;;;;5.58;100.00;101189.75;5027870;28;20471;-60
2022/11/13 07:16:07;;;;;;;1.70;1.60;;;;;;;5.38;100.00;101190.50;5030476;28;20482;-60
2022/11/13 07:18:43;;;;;;;0.83;0.83;;;;;;;4.98;100.00;101184.94;5015155;28;20484;-60
2022/11/13 07:21:12;;;;;;;0.93;0.93;;;;;;;5.16;100.00;101178.91;5024574;28;20454;-60
2022/11/13 07:23:41;;;;;;;1.03;1.03;;;;;;;5.21;100.00;101179.84;5024546;28;20480;-60
2022/11/13 07:26:09;;;;;;;0.83;0.77;;;;;;;5.17;100.00;101172.78;5031679;28;21023;-60
2022/11/13 07:28:36;;;;;;;1.20;1.03;;;;;;;5.09;100.00;101164.84;5019707;28;20487;-60
2022/11/13 07:31:03;;;;;;;1.30;1.20;;;;;;;5.10;100.00;101169.22;5002324;28;20452;-60
2022/11/13 07:33:29;;;;;;;1.00;0.60;;;;;;;4.96;100.00;101173.50;5016117;28;20530;-60
2022/11/13 07:35:56;;;;;;;19.37;1.87;;;;;;;5.10;100.00;101171.88;5012953;28;20456;-60
2022/11/13 07:38:23;;;;;;;2.30;2.20;;;;;;;5.47;100.00;101166.84;5026500;28;20452;-60
2022/11/13 07:40:50;;;;;;;1.27;1.20;;;;;;;5.26;100.00;101163.19;5020971;28;20969;-60
2022/11/13 07:43:16;;;;;;;2.90;2.27;;;;;;;5.36;100.00;101166.78;5018675;28;20483;-60
2022/11/13 07:45:43;;;;;;;1.70;1.60;;;;;;;5.26;100.00;101171.09;5027822;28;20466;-60
2022/11/13 07:48:09;;;;;;;3.70;0.90;;;;;;;5.32;100.00;101170.25;5020535;28;20465;-60
2022/11/13 07:50:37;;;;;;;2.20;1.90;;;;;;;5.60;100.00;101159.00;5009728;28;20452;-60
2022/11/13 07:53:06;;;;;;;5.53;3.77;;;;;;;5.96;100.00;101160.09;5024732;28;20476;-60
2022/11/13 07:55:34;;;;;;;1.63;1.53;;;;;;;5.78;100.00;101168.78;4997905;28;20551;-60
2022/11/13 07:58:02;;;;;;;1.83;1.73;;;;;;;5.73;100.00;101167.88;5011998;28;20464;-60
2022/11/13 08:00:30;;;;;;;1.80;1.70;;;;;;;5.88;100.00;101165.28;5025079;28;20491;-60
2022/11/13 08:02:57;;;;;;;2.60;1.10;;;;;;;5.64;100.00;101154.66;5020606;28;20574;-60
2022/11/13 08:05:23;;;;;;;1.07;0.80;;;;;;;5.68;100.00;101159.06;5021167;28;20460;-60
2022/11/13 08:07:51;;;;;;;1.37;1.27;;;;;;;5.65;100.00;101161.69;5016619;28;20496;-60
2022/11/13 08:10:19;;;;;;;1.03;0.93;;;;;;;5.61;100.00;101154.59;5013921;28;20452;-60
2022/11/13 08:12:45;;;;;;;2.10;0.80;;;;;;;5.75;100.00;101163.47;5017332;28;20476;-59
2022/11/13 08:15:13;;;;;;;1.67;1.33;;;;;;;5.98;100.00;101170.66;5014429;28;20456;-60
2022/11/13 08:17:39;;;;;;;1.20;1.20;;;;;;;6.03;100.00;101166.28;5022538;28;20485;-60
2022/11/13 08:20:06;;;;;;;1.50;1.40;;;;;;;5.76;100.00;101164.38;5011745;28;20483;-59
2022/11/13 08:22:33;;;;;;;2.07;1.93;;;;;;;6.06;100.00;101161.91;5020520;28;20983;-60
2022/11/13 08:25:00;;;;;;;1.93;1.57;;;;;;;6.09;100.00;101155.75;5024707;28;20998;-60
2022/11/13 08:27:26;;;;;;;3.17;2.97;;;;;;;6.34;100.00;101160.25;5027579;23;20491;-55
2022/11/13 08:29:53;;;;;;;1.60;1.50;;;;;;;5.93;100.00;101154.81;5037087;28;20459;-56
2022/11/13 08:32:19;;;;;;;2.63;2.10;;;;;;;5.76;100.00;101154.72;5045580;28;20459;-55
2022/11/13 08:34:45;;;;;;;1.57;0.90;;;;;;;5.85;100.00;101152.09;5048340;28;20513;-55
2022/11/13 08:37:12;;;;;;;0.93;0.93;;;;;;;5.77;100.00;101143.28;5040648;28;20525;-55
2022/11/13 08:39:38;;;;;;;2.60;2.50;;;;;;;5.76;100.00;101145.91;5043461;28;20533;-55
2022/11/13 08:42:04;;;;;;;0.97;0.87;;;;;;;5.83;100.00;101145.94;5031248;28;20509;-56
2022/11/13 08:44:31;;;;;;;2.10;2.00;;;;;;;5.98;100.00;101136.34;5043409;28;20480;-56
2022/11/13 08:46:57;;;;;;;1.23;1.23;;;;;;;6.01;100.00;101139.88;5037108;28;20968;-56
2022/11/13 08:49:24;;;;;;;3.37;3.10;;;;;;;6.27;100.00;101136.44;5021517;28;20501;-55
2022/11/13 08:51:50;;;;;;;3.53;3.23;;;;;;;6.18;100.00;101143.47;5029796;28;20455;-56
2022/11/13 08:54:16;;;;;;;1.27;1.17;;;;;;;6.07;100.00;101139.03;5046705;28;20923;-55
2022/11/13 08:56:46;;;;;;;2.07;1.87;;;;;;;6.47;100.00;101129.47;5032896;28;20456;-55
2022/11/13 08:59:22;;;;;;;1.47;1.37;;;;;;;6.54;100.00;101136.50;5034214;28;20581;-56
2022/11/13 09:01:49;;;;;;;1.83;1.73;;;;;;;6.62;100.00;101128.59;5045796;28;20478;-56
2022/11/13 09:04:15;;;;;;;3.93;2.30;;;;;;;6.58;100.00;101127.72;5025283;28;20457;-55
2022/11/13 09:06:42;;;;;;;3.13;2.83;;;;;;;6.48;100.00;101118.91;5024397;28;20452;-56
2022/11/13 09:09:08;;;;;;;3.70;3.40;;;;;;;6.63;100.00;101119.78;5044116;28;20492;-56
2022/11/13 09:11:35;;;;;;;1.67;1.57;;;;;;;6.73;100.00;101106.59;5043755;28;20451;-56
2022/11/13 09:14:01;;;;;;;2.30;2.10;;;;;;;6.79;100.00;101114.50;5029108;28;20855;-55
2022/11/13 09:16:28;;;;;;;3.30;3.00;;;;;;;7.17;100.00;101113.63;5026753;28;20515;-56
2022/11/13 09:18:54;;;;;;;2.13;2.03;;;;;;;7.11;100.00;101103.03;5033976;28;20532;-56
2022/11/13 09:21:20;;;;;;;4.37;3.07;;;;;;;7.38;100.00;101096.81;5046555;28;20819;-56
2022/11/13 09:23:47;;;;;;;5.90;2.50;;;;;;;6.81;100.00;101098.66;5026609;28;21231;-57
2022/11/13 09:26:13;;;;;;;2.60;2.40;;;;;;;6.63;100.00;101098.66;5035905;28;20968;-56
2022/11/13 09:28:39;;;;;;;2.40;2.20;;;;;;;6.78;100.00;101103.94;5042884;28;20541;-56
2022/11/13 09:31:06;;;;;;;5.40;2.77;;;;;;;7.05;100.00;101103.06;5038885;28;20465;-55
2022/11/13 09:33:33;;;;;;;2.20;2.00;;;;;;;6.60;100.00;101096.91;5043788;28;20510;-55
2022/11/13 09:36:00;;;;;;;2.30;2.20;;;;;;;6.50;100.00;101106.56;5033224;28;20527;-56
2022/11/13 09:38:30;;;;;;;6.53;2.67;;;;;;;6.51;100.00;101099.53;5022803;28;20481;-55
2022/11/13 09:41:04;;;;;;;2.60;2.40;;;;;;;6.57;100.00;101093.38;5033968;28;20491;-55
2022/11/13 09:43:46;;;;;;;1.57;1.47;;;;;;;6.50;100.00;101095.13;5022364;28;21020;-55
2022/11/13 09:46:37;;;;;;;2.53;1.87;;;;;;;6.60;100.00;101088.97;5037644;28;20459;-55
2022/11/13 09:49:14;;;;;;;10.60;1.40;;;;;;;6.52;100.00;101081.03;5017591;28;20481;-54
2022/11/13 09:51:51;;;;;;;3.07;2.27;;;;;;;6.47;100.00;101080.16;5038318;28;20809;-55
2022/11/13 09:54:19;;;;;;;6.10;2.53;;;;;;;6.66;100.00;101088.97;5031648;28;20515;-54
2022/11/13 09:57:08;;;;;;;4.83;4.03;;;;;;;7.11;100.00;101088.06;5021986;28;20505;-54
2022/11/13 09:59:52;;;;;;;2.40;2.00;;;;;;;7.36;100.00;101074.78;5023022;28;20484;-54
2022/11/13 10:02:55;;;;;;;1.60;1.50;;;;;;;7.49;100.00;101065.03;5030830;28;20492;-54
2022/11/13 10:05:35;;;;;;;2.00;1.90;;;;;;;7.48;100.00;101053.59;5037949;28;20460;-53
2022/11/13 10:08:15;;;;;;;2.90;2.70;;;;;;;7.71;100.00;101048.22;5032032;28;20482;-54
2022/11/13 10:10:41;;;;;;;3.83;3.63;;;;;;;7.93;100.00;101059.56;5036495;28;20446;-54
2022/11/13 10:13:13;;;;;;;2.70;1.50;;;;;;;7.85;100.00;101045.50;5037154;28;20463;-54
2022/11/13 10:15:42;;;;;;;2.93;2.40;;;;;;;8.27;100.00;101050.53;5042943;28;20452;-54
2022/11/13 10:18:17;;;;;;;7.63;2.97;;;;;;;7.84;100.00;101052.56;5042556;28;20898;-54
2022/11/13 10:20:56;;;;;;;2.20;1.90;;;;;;;8.13;100.00;101054.16;5024910;28;20494;-54
2022/11/13 10:23:36;;;;;;;2.63;2.50;;;;;;;7.74;100.00;101056.13;5043318;28;20950;-53
2022/11/13 10:26:17;;;;;;;1.83;1.73;;;;;;;7.65;100.00;101049.09;5040562;28;20449;-55
2022/11/13 10:28:44;;;;;;;2.80;2.60;;;;;;;7.90;100.00;101039.28;5035794;28;21064;-55
2022/11/13 10:31:18;;;;;;;6.60;3.40;;;;;;;7.90;100.00;101044.56;5035941;28;20497;-55
2022/11/13 10:33:44;;;;;;;3.47;3.27;;;;;;;8.15;100.00;101033.84;5041646;28;20451;-55
2022/11/13 10:36:23;;;;;;;3.67;3.40;;;;;;;8.48;100.00;101027.44;5042588;28;20450;-55
2022/11/13 10:38:59;;;;;;;3.40;3.20;;;;;;;8.53;100.00;101020.34;5038413;28;20470;-55
2022/11/13 10:41:25;;;;;;;3.13;2.90;;;;;;;8.67;100.00;101012.28;5031615;28;20544;-55
2022/11/13 10:43:54;;;;;;;2.67;2.50;;;;;;;8.43;100.00;101001.00;5040367;28;20451;-56
2022/11/13 10:46:23;;;;;;;2.90;2.50;;;;;;;8.26;100.00;101003.75;5035413;28;20454;-55
2022/11/13 10:48:50;;;;;;;4.60;3.83;;;;;;;8.32;100.00;101000.16;5041923;28;20482;-55
2022/11/13 10:51:27;;;;;;;3.73;3.53;;;;;;;8.87;100.00;100986.44;5035347;28;20454;-55
2022/11/13 10:53:55;;;;;;;6.60;3.80;;;;;;;8.76;100.00;100981.25;5035347;28;20478;-55
2022/11/13 10:56:30;;;;;;;8.40;4.00;;;;;;;8.44;100.00;100957.72;5041470;28;20975;-55
2022/11/13 10:59:14;;;;;;;4.10;3.80;;;;;;;8.43;100.00;100953.31;5042344;28;20809;-55
2022/11/13 11:01:42;;;;;;;3.77;3.57;;;;;;;8.75;100.00;100944.16;5039748;28;20450;-56
2022/11/13 11:04:18;;;;;;;3.50;3.30;;;;;;;8.50;100.00;100946.19;5035479;28;20455;-56
2022/11/13 11:06:44;;;;;;;4.20;3.77;;;;;;;8.46;100.00;100929.44;5036505;28;20451;-55
2022/11/13 11:09:31;;;;;;;4.27;4.07;;;;;;;8.82;100.00;100922.88;5025941;28;20536;-55
2022/11/13 11:12:17;;;;;;;13.97;4.60;;;;;;;9.01;100.00;100909.41;5035162;28;20964;-55
2022/11/13 11:14:55;;;;;;;8.93;6.70;;;;;;;8.91;100.00;100895.41;5037911;28;20863;-55
2022/11/13 11:17:45;;;;;;;6.17;4.70;;;;;;;8.92;100.00;100894.50;5041756;28;20550;-55
2022/11/13 11:20:20;;;;;;;4.97;3.80;;;;;;;9.23;100.00;100891.44;5042057;28;20541;-55
2022/11/13 11:22:52;;;;;;;4.67;4.37;;;;;;;8.79;100.00;100891.09;5039895;28;20576;-55
2022/11/13 11:25:28;;;;;;;5.30;4.27;;;;;;;8.95;100.00;100889.16;5035368;28;20532;-55
2022/11/13 11:28:04;;;;;;;8.30;6.00;;;;;;;9.07;100.00;100889.00;5036216;28;20499;-55
2022/11/13 11:30:38;;;;;;;5.23;4.43;;;;;;;9.47;100.00;100880.50;5041489;28;20444;-56
2022/11/13 11:33:07;;;;;;;10.30;4.60;;;;;;;9.23;100.00;100875.53;5042042;28;20577;-53
2022/11/13 11:36:05;;;;;;;4.00;3.70;;;;;;;9.34;100.00;100869.19;5037265;28;20524;-54